Time;durP1;ratioP1;P1;durP2;ratioP2;P2;SDS_P1;SDS_P2;PMS_P1;PMS_P2;Temp;Humidity;BMP_temperature;BMP_pressure;BME280_temperature;BME280_humidity;BME280_pressure;Samples;Min_cycle;Max_cycle;Signal;HPM_P1;HPM_P2
2021/10/26 00:01:43;;;;;;;32.03;19.13;;;;;;;;;;4972633;28;20034;-75
2021/10/26 00:04:08;;;;;;;31.65;17.92;;;;;;;;;;4972397;28;20027;-75
2021/10/26 00:06:35;;;;;;;30.15;19.27;;;;;;;;;;4972912;28;20360;-74
2021/10/26 00:09:01;;;;;;;32.00;19.00;;;;;;;;;;4972409;28;20077;-75
2021/10/26 00:11:26;;;;;;;34.88;19.45;;;;;;;;;;4970192;28;20031;-75
2021/10/26 00:13:52;;;;;;;31.42;19.40;;;;;;;;;;4970299;28;20459;-76
2021/10/26 00:16:18;;;;;;;28.45;18.42;;;;;;;;;;4973221;28;20117;-76
2021/10/26 00:18:44;;;;;;;29.90;18.25;;;;;;;;;;4972614;28;20121;-75
2021/10/26 00:21:10;;;;;;;28.65;18.45;;;;;;;;;;4971544;28;20087;-75
2021/10/26 00:23:36;;;;;;;30.48;18.30;;;;;;;;;;4967042;28;20210;-76
2021/10/26 00:26:03;;;;;;;31.73;18.33;;;;;;;;;;4973225;28;20475;-75
2021/10/26 00:28:30;;;;;;;34.03;20.27;;;;;;;;;;4972765;28;20155;-76
2021/10/26 00:30:55;;;;;;;33.30;19.40;;;;;;;;;;4972533;28;20055;-76
2021/10/26 00:33:21;;;;;;;30.77;18.33;;;;;;;;;;4970443;28;20027;-76
2021/10/26 00:35:46;;;;;;;33.30;19.30;;;;;;;;;;4961939;28;20051;-76
2021/10/26 00:38:12;;;;;;;27.40;18.10;;;;;;;;;;4972071;28;20031;-76
2021/10/26 00:40:37;;;;;;;27.85;18.42;;;;;;;;;;4969191;28;20391;-76
2021/10/26 00:43:03;;;;;;;33.10;18.77;;;;;;;;;;4970145;28;20026;-76
2021/10/26 00:45:29;;;;;;;32.78;18.85;;;;;;;;;;4972703;28;20023;-76
2021/10/26 00:47:54;;;;;;;29.45;18.42;;;;;;;;;;4972549;28;20030;-76
2021/10/26 00:50:20;;;;;;;28.25;18.45;;;;;;;;;;4971758;28;20134;-75
2021/10/26 00:52:45;;;;;;;28.23;17.67;;;;;;;;;;4967324;28;20077;-76
2021/10/26 00:55:11;;;;;;;28.92;17.60;;;;;;;;;;4984036;28;20378;-75
2021/10/26 00:57:37;;;;;;;28.00;18.55;;;;;;;;;;4972273;28;20034;-76
2021/10/26 01:00:04;;;;;;;34.63;18.40;;;;;;;;;;4967654;28;20050;-76
2021/10/26 01:02:30;;;;;;;27.08;18.00;;;;;;;;;;4963013;28;20492;-75
2021/10/26 01:04:55;;;;;;;31.80;18.95;;;;;;;;;;4962750;28;20292;-76
2021/10/26 01:07:21;;;;;;;29.40;19.15;;;;;;;;;;4969600;28;20027;-75
2021/10/26 01:09:46;;;;;;;37.10;20.10;;;;;;;;;;4972458;28;20101;-76
2021/10/26 01:12:13;;;;;;;35.92;19.60;;;;;;;;;;4969180;28;20039;-76
2021/10/26 01:14:38;;;;;;;28.80;18.70;;;;;;;;;;4969088;28;20031;-75
2021/10/26 01:17:06;;;;;;;30.63;18.65;;;;;;;;;;4972100;28;20475;-76
2021/10/26 01:19:47;;;;;;;28.05;17.73;;;;;;;;;;4971166;28;20022;-76
2021/10/26 01:22:14;;;;;;;32.65;17.98;;;;;;;;;;4968114;28;20434;-75
2021/10/26 01:24:39;;;;;;;28.60;17.83;;;;;;;;;;4970524;28;20027;-76
2021/10/26 01:27:05;;;;;;;32.45;17.60;;;;;;;;;;4971202;28;20072;-76
2021/10/26 01:29:30;;;;;;;31.10;18.35;;;;;;;;;;4971689;28;20019;-76
2021/10/26 01:31:56;;;;;;;30.40;18.38;;;;;;;;;;4970799;28;20130;-75
2021/10/26 01:34:21;;;;;;;29.42;18.55;;;;;;;;;;4969998;28;20121;-76
2021/10/26 01:36:50;;;;;;;36.45;19.83;;;;;;;;;;4971480;28;20077;-76
2021/10/26 01:39:15;;;;;;;32.75;18.65;;;;;;;;;;4971445;28;20391;-75
2021/10/26 01:41:41;;;;;;;33.60;19.27;;;;;;;;;;4971587;28;20022;-76
2021/10/26 01:44:06;;;;;;;38.08;19.15;;;;;;;;;;4969676;28;20406;-76
2021/10/26 01:46:32;;;;;;;37.30;19.33;;;;;;;;;;4971424;28;20482;-76
2021/10/26 01:48:58;;;;;;;36.53;19.23;;;;;;;;;;4970621;28;20023;-76
2021/10/26 01:51:23;;;;;;;36.70;18.95;;;;;;;;;;4971027;28;20023;-76
2021/10/26 01:53:48;;;;;;;34.13;18.90;;;;;;;;;;4958744;28;20090;-76
2021/10/26 01:56:14;;;;;;;36.10;19.83;;;;;;;;;;4970988;28;20023;-76
2021/10/26 01:58:40;;;;;;;34.47;18.70;;;;;;;;;;4971160;28;20073;-76
2021/10/26 02:01:06;;;;;;;34.72;18.77;;;;;;;;;;4970197;28;20375;-76
2021/10/26 02:03:31;;;;;;;37.50;18.88;;;;;;;;;;4953515;28;20484;-76
2021/10/26 02:05:57;;;;;;;30.23;17.60;;;;;;;;;;4968805;28;20491;-76
2021/10/26 02:08:22;;;;;;;35.30;19.08;;;;;;;;;;4970975;28;20494;-76
2021/10/26 02:10:47;;;;;;;38.97;17.88;;;;;;;;;;4969962;28;20037;-76
2021/10/26 02:13:14;;;;;;;32.80;18.42;;;;;;;;;;4969414;28;20042;-76
2021/10/26 02:15:40;;;;;;;35.47;18.55;;;;;;;;;;4971359;28;20510;-76
2021/10/26 02:18:05;;;;;;;34.53;18.30;;;;;;;;;;4970338;28;20030;-76
2021/10/26 02:20:31;;;;;;;29.02;17.70;;;;;;;;;;4970037;28;20033;-76
2021/10/26 02:22:56;;;;;;;28.98;17.20;;;;;;;;;;4962654;28;20058;-76
2021/10/26 02:25:22;;;;;;;32.30;16.58;;;;;;;;;;4970603;28;20018;-76
2021/10/26 02:27:48;;;;;;;32.50;17.27;;;;;;;;;;4970469;28;20023;-76
2021/10/26 02:30:13;;;;;;;35.13;17.15;;;;;;;;;;4970372;28;20026;-76
2021/10/26 02:32:39;;;;;;;32.22;16.38;;;;;;;;;;4970022;28;20426;-76
2021/10/26 02:35:05;;;;;;;36.03;17.35;;;;;;;;;;4970355;28;20030;-76
2021/10/26 02:37:31;;;;;;;32.20;17.85;;;;;;;;;;4970024;28;20029;-76
2021/10/26 02:39:56;;;;;;;35.38;17.92;;;;;;;;;;4971106;28;20030;-76
2021/10/26 02:42:22;;;;;;;39.47;17.85;;;;;;;;;;4968172;28;20046;-75
2021/10/26 02:44:48;;;;;;;34.92;18.17;;;;;;;;;;4960717;28;20085;-76
2021/10/26 02:47:13;;;;;;;42.17;18.05;;;;;;;;;;4968926;28;20034;-75
2021/10/26 02:49:39;;;;;;;34.40;17.23;;;;;;;;;;4970547;28;20475;-75
2021/10/26 02:52:05;;;;;;;35.92;18.00;;;;;;;;;;4970233;28;20033;-75
2021/10/26 02:54:30;;;;;;;32.53;17.73;;;;;;;;;;4968732;28;20042;-76
2021/10/26 02:56:56;;;;;;;40.63;18.70;;;;;;;;;;4970241;28;20089;-76
2021/10/26 02:59:24;;;;;;;36.03;18.35;;;;;;;;;;4969786;28;20480;-75
2021/10/26 03:01:50;;;;;;;38.05;18.38;;;;;;;;;;4970143;28;20082;-76
2021/10/26 03:04:15;;;;;;;39.13;18.20;;;;;;;;;;4969846;28;20027;-75
2021/10/26 03:06:43;;;;;;;38.50;17.42;;;;;;;;;;4970699;28;20026;-75
2021/10/26 03:09:09;;;;;;;32.78;17.15;;;;;;;;;;4968415;28;20035;-75
2021/10/26 03:11:35;;;;;;;37.17;18.08;;;;;;;;;;4969892;28;20564;-76
2021/10/26 03:14:01;;;;;;;36.60;17.50;;;;;;;;;;4970247;28;20466;-75
2021/10/26 03:16:26;;;;;;;36.80;17.30;;;;;;;;;;4970212;28;20085;-75
2021/10/26 03:18:52;;;;;;;33.78;17.73;;;;;;;;;;4964392;28;20477;-75
2021/10/26 03:21:18;;;;;;;30.27;16.48;;;;;;;;;;4970341;28;20031;-75
2021/10/26 03:23:43;;;;;;;35.15;17.40;;;;;;;;;;4970393;28;20039;-75
2021/10/26 03:26:09;;;;;;;32.30;17.15;;;;;;;;;;4970415;28;20035;-75
2021/10/26 03:28:34;;;;;;;32.00;16.73;;;;;;;;;;4969035;28;20026;-75
2021/10/26 03:31:03;;;;;;;36.33;17.30;;;;;;;;;;4969729;28;20053;-75
2021/10/26 03:33:29;;;;;;;34.50;16.25;;;;;;;;;;4969520;28;20134;-75
2021/10/26 03:35:55;;;;;;;36.08;16.45;;;;;;;;;;4969994;28;20117;-75
2021/10/26 03:38:21;;;;;;;35.45;17.17;;;;;;;;;;4969941;28;20031;-75
2021/10/26 03:40:47;;;;;;;31.15;16.30;;;;;;;;;;4974739;28;20026;-75
2021/10/26 03:43:12;;;;;;;32.13;16.10;;;;;;;;;;4973262;28;20390;-75
2021/10/26 03:45:37;;;;;;;30.00;16.38;;;;;;;;;;4971108;28;20112;-75
2021/10/26 03:48:03;;;;;;;29.77;15.07;;;;;;;;;;4971795;28;20493;-75
2021/10/26 03:50:30;;;;;;;32.33;15.15;;;;;;;;;;4970475;28;20038;-75
2021/10/26 03:52:55;;;;;;;26.35;15.48;;;;;;;;;;4962260;28;20118;-75
2021/10/26 03:55:21;;;;;;;27.55;15.63;;;;;;;;;;4971714;28;20150;-76
2021/10/26 03:57:47;;;;;;;30.70;16.02;;;;;;;;;;4967155;28;20031;-76
2021/10/26 04:00:12;;;;;;;34.83;16.88;;;;;;;;;;4971623;28;20039;-76
2021/10/26 04:02:42;;;;;;;32.72;16.30;;;;;;;;;;4971332;28;20133;-75
2021/10/26 04:05:24;;;;;;;32.83;16.73;;;;;;;;;;4972518;28;20041;-75
2021/10/26 04:07:56;;;;;;;34.38;16.30;;;;;;;;;;4965575;28;20035;-75
2021/10/26 04:10:33;;;;;;;32.97;15.77;;;;;;;;;;4970171;28;20542;-75
2021/10/26 04:12:59;;;;;;;34.83;15.45;;;;;;;;;;4972493;28;20493;-75
2021/10/26 04:15:24;;;;;;;31.80;16.33;;;;;;;;;;4970753;28;20027;-75
2021/10/26 04:17:50;;;;;;;33.78;16.40;;;;;;;;;;4967936;28;20505;-75
2021/10/26 04:20:15;;;;;;;36.83;16.83;;;;;;;;;;4963908;28;20143;-75
2021/10/26 04:22:41;;;;;;;33.05;16.17;;;;;;;;;;4970372;28;20043;-75
2021/10/26 04:25:07;;;;;;;33.25;16.52;;;;;;;;;;4972150;28;20033;-76
2021/10/26 04:27:32;;;;;;;35.28;16.35;;;;;;;;;;4974811;28;20054;-76
2021/10/26 04:29:58;;;;;;;31.42;16.05;;;;;;;;;;4967588;28;20022;-76
2021/10/26 04:32:24;;;;;;;31.90;17.13;;;;;;;;;;4963830;28;20026;-76
2021/10/26 04:34:49;;;;;;;33.50;17.75;;;;;;;;;;4972538;28;20382;-75
2021/10/26 04:37:14;;;;;;;33.50;16.92;;;;;;;;;;4970631;28;20035;-76
2021/10/26 04:39:40;;;;;;;33.00;16.77;;;;;;;;;;4971448;28;20046;-76
2021/10/26 04:42:08;;;;;;;38.75;17.40;;;;;;;;;;4962510;28;20771;-76
2021/10/26 04:44:35;;;;;;;37.38;16.88;;;;;;;;;;4972363;28;20031;-75
2021/10/26 04:47:00;;;;;;;28.42;17.10;;;;;;;;;;4969961;28;20046;-75
2021/10/26 04:49:26;;;;;;;34.67;16.58;;;;;;;;;;4965456;28;20027;-75
2021/10/26 04:51:51;;;;;;;37.35;17.48;;;;;;;;;;4965397;28;20027;-75
2021/10/26 04:54:17;;;;;;;36.88;17.52;;;;;;;;;;4967488;28;20057;-75
2021/10/26 04:56:42;;;;;;;44.72;18.20;;;;;;;;;;4972595;28;20023;-76
2021/10/26 04:59:08;;;;;;;41.47;19.27;;;;;;;;;;4973718;28;20520;-76
2021/10/26 05:01:33;;;;;;;42.17;18.33;;;;;;;;;;4972726;28;20031;-75
2021/10/26 05:03:59;;;;;;;39.28;18.13;;;;;;;;;;4974010;28;20019;-76
2021/10/26 05:06:24;;;;;;;42.28;18.17;;;;;;;;;;4968071;28;20105;-76
2021/10/26 05:08:52;;;;;;;40.65;17.20;;;;;;;;;;4973011;28;20031;-75
2021/10/26 05:11:21;;;;;;;34.42;16.77;;;;;;;;;;4966185;28;20030;-77
2021/10/26 05:13:47;;;;;;;35.75;17.48;;;;;;;;;;4972522;28;20035;-76
2021/10/26 05:16:13;;;;;;;33.08;16.95;;;;;;;;;;4971585;28;20038;-77
2021/10/26 05:18:46;;;;;;;34.80;16.98;;;;;;;;;;4970758;28;20518;-77
2021/10/26 05:21:18;;;;;;;39.65;18.55;;;;;;;;;;4966632;28;20498;-77
2021/10/26 05:23:46;;;;;;;37.85;19.60;;;;;;;;;;4969741;28;20404;-78
2021/10/26 05:26:12;;;;;;;43.00;20.05;;;;;;;;;;4971618;28;20022;-78
2021/10/26 05:28:37;;;;;;;44.25;21.98;;;;;;;;;;4971278;28;20137;-77
2021/10/26 05:31:03;;;;;;;45.75;21.13;;;;;;;;;;4967423;28;20026;-77
2021/10/26 05:33:29;;;;;;;39.75;20.80;;;;;;;;;;4957363;28;20066;-77
2021/10/26 05:35:54;;;;;;;40.88;20.55;;;;;;;;;;4973320;28;20486;-78
2021/10/26 05:38:20;;;;;;;44.38;22.45;;;;;;;;;;4972329;28;20125;-77
2021/10/26 05:40:46;;;;;;;41.72;21.85;;;;;;;;;;4972059;28;20451;-78
2021/10/26 05:43:11;;;;;;;38.42;21.48;;;;;;;;;;4972754;28;20351;-77
2021/10/26 05:45:37;;;;;;;39.13;21.15;;;;;;;;;;4970266;28;20102;-77
2021/10/26 05:48:03;;;;;;;39.75;21.35;;;;;;;;;;4973798;28;20019;-75
2021/10/26 05:50:28;;;;;;;37.15;20.02;;;;;;;;;;4973688;28;20062;-76
2021/10/26 05:52:54;;;;;;;37.28;20.90;;;;;;;;;;4974114;28;20109;-77
2021/10/26 05:55:21;;;;;;;32.30;20.10;;;;;;;;;;4972704;28;20435;-77
2021/10/26 05:57:47;;;;;;;34.53;19.17;;;;;;;;;;4964060;28;20472;-77
2021/10/26 06:00:14;;;;;;;42.92;20.83;;;;;;;;;;4955329;28;20025;-78
2021/10/26 06:02:39;;;;;;;41.63;21.20;;;;;;;;;;4955447;28;20102;-77
2021/10/26 06:05:05;;;;;;;37.65;18.95;;;;;;;;;;4967936;28;20558;-77
2021/10/26 06:07:30;;;;;;;36.95;18.85;;;;;;;;;;4969107;28;20491;-76
2021/10/26 06:09:56;;;;;;;32.97;17.75;;;;;;;;;;4972427;28;20025;-76
2021/10/26 06:12:27;;;;;;;32.60;17.50;;;;;;;;;;4971573;28;20019;-75
2021/10/26 06:14:53;;;;;;;29.70;17.13;;;;;;;;;;4971055;28;20390;-75
2021/10/26 06:17:18;;;;;;;29.17;17.00;;;;;;;;;;4966078;28;20029;-75
2021/10/26 06:19:44;;;;;;;26.25;14.25;;;;;;;;;;4960310;28;20023;-76
2021/10/26 06:22:09;;;;;;;21.33;11.52;;;;;;;;;;4969800;28;20125;-75
2021/10/26 06:24:35;;;;;;;16.58;9.80;;;;;;;;;;4969765;28;20030;-76
2021/10/26 06:27:00;;;;;;;14.70;10.73;;;;;;;;;;4970807;28;20084;-76
2021/10/26 06:29:26;;;;;;;15.38;9.55;;;;;;;;;;4967753;28;20286;-75
2021/10/26 06:31:51;;;;;;;15.93;9.75;;;;;;;;;;4964227;28;20038;-74
2021/10/26 06:34:16;;;;;;;14.25;8.70;;;;;;;;;;4971816;28;20023;-75
2021/10/26 06:36:42;;;;;;;13.35;7.95;;;;;;;;;;4967042;28;20101;-75
2021/10/26 06:39:07;;;;;;;11.68;8.35;;;;;;;;;;4969963;28;20109;-75
2021/10/26 06:41:33;;;;;;;14.80;9.52;;;;;;;;;;4970353;28;20336;-75
2021/10/26 06:43:59;;;;;;;14.35;9.50;;;;;;;;;;4970745;28;20178;-75
2021/10/26 06:46:24;;;;;;;13.57;9.13;;;;;;;;;;4970686;28;20128;-76
2021/10/26 06:48:50;;;;;;;14.73;8.68;;;;;;;;;;4970502;28;20425;-75
2021/10/26 06:51:15;;;;;;;14.52;9.07;;;;;;;;;;4982540;28;20027;-75
2021/10/26 06:53:43;;;;;;;16.52;9.40;;;;;;;;;;4962732;28;20090;-75
2021/10/26 06:56:13;;;;;;;16.58;9.20;;;;;;;;;;4969768;28;20030;-75
2021/10/26 06:58:39;;;;;;;15.48;9.70;;;;;;;;;;4971358;28;20063;-76
2021/10/26 07:01:07;;;;;;;16.20;10.10;;;;;;;;;;4970645;28;20054;-76
2021/10/26 07:03:43;;;;;;;17.48;10.55;;;;;;;;;;4973264;28;20490;-80
2021/10/26 07:06:08;;;;;;;19.40;11.40;;;;;;;;;;4972898;28;20609;-78
2021/10/26 07:08:40;;;;;;;21.77;12.13;;;;;;;;;;4973790;28;20109;-80
2021/10/26 07:11:06;;;;;;;21.70;12.35;;;;;;;;;;4973928;28;20172;-79
2021/10/26 07:13:38;;;;;;;29.90;13.27;;;;;;;;;;4974533;28;20117;-76
2021/10/26 07:16:07;;;;;;;28.27;14.88;;;;;;;;;;4974268;28;20382;-79
2021/10/26 07:18:34;;;;;;;31.38;15.27;;;;;;;;;;4976775;28;20775;-77
2021/10/26 07:20:59;;;;;;;35.63;16.83;;;;;;;;;;4966821;28;20490;-78
2021/10/26 07:23:25;;;;;;;38.50;17.13;;;;;;;;;;4966343;28;20036;-78
2021/10/26 07:25:52;;;;;;;41.22;18.45;;;;;;;;;;4963559;28;20483;-80
2021/10/26 07:28:18;;;;;;;37.97;17.83;;;;;;;;;;4972276;28;20019;-78
2021/10/26 07:30:45;;;;;;;33.63;17.10;;;;;;;;;;4974275;28;20126;-78
2021/10/26 07:33:20;;;;;;;35.35;17.88;;;;;;;;;;4975244;28;20634;-79
2021/10/26 07:35:49;;;;;;;31.05;16.85;;;;;;;;;;4974826;28;20114;-77
2021/10/26 07:38:16;;;;;;;33.78;17.23;;;;;;;;;;4976148;28;20023;-76
2021/10/26 07:40:41;;;;;;;33.75;17.98;;;;;;;;;;4976139;28;20033;-77
2021/10/26 07:43:07;;;;;;;30.67;17.45;;;;;;;;;;4973011;28;20023;-79
2021/10/26 07:45:33;;;;;;;31.35;17.38;;;;;;;;;;4961087;28;20102;-78
2021/10/26 07:48:00;;;;;;;29.13;17.08;;;;;;;;;;4976751;28;20540;-80
2021/10/26 07:50:26;;;;;;;35.65;17.15;;;;;;;;;;4974882;28;20037;-79
2021/10/26 07:52:52;;;;;;;27.10;16.27;;;;;;;;;;4975964;28;20109;-80
2021/10/26 07:55:18;;;;;;;27.20;15.35;;;;;;;;;;4975381;28;20026;-78
2021/10/26 07:57:44;;;;;;;28.88;15.02;;;;;;;;;;4976365;28;20422;-79
2021/10/26 08:00:10;;;;;;;24.48;15.00;;;;;;;;;;4974786;28;20034;-78
2021/10/26 08:02:35;;;;;;;29.15;15.70;;;;;;;;;;4965793;28;20023;-80
2021/10/26 08:05:01;;;;;;;30.45;16.13;;;;;;;;;;4974942;28;20027;-80
2021/10/26 08:07:27;;;;;;;24.48;15.15;;;;;;;;;;4976024;28;20375;-80
2021/10/26 08:09:55;;;;;;;27.20;15.00;;;;;;;;;;4976541;28;20031;-79
2021/10/26 08:12:22;;;;;;;29.38;15.68;;;;;;;;;;4976901;28;20094;-80
2021/10/26 08:14:49;;;;;;;27.35;16.13;;;;;;;;;;4961193;28;20035;-80
2021/10/26 08:17:17;;;;;;;24.92;14.75;;;;;;;;;;4975666;28;20101;-79
2021/10/26 08:19:44;;;;;;;30.15;15.98;;;;;;;;;;4974591;28;20114;-80
2021/10/26 08:22:16;;;;;;;25.00;14.85;;;;;;;;;;4974111;28;20043;-78
2021/10/26 08:24:44;;;;;;;31.25;15.55;;;;;;;;;;4971349;28;20058;-80
2021/10/26 08:27:16;;;;;;;22.30;14.05;;;;;;;;;;4976025;28;20031;-75
2021/10/26 08:35:15;;;;;;;27.38;14.40;;;;;;;;;;4973418;28;20031;-78
2021/10/26 08:37:37;;;;;;;25.50;13.80;;;;;;;;;;4970103;28;20497;-77
2021/10/26 08:40:03;;;;;;;28.45;14.68;;;;;;;;;;4973524;28;20034;-77
2021/10/26 08:42:30;;;;;;;27.65;15.43;;;;;;;;;;4972628;28;20090;-77
2021/10/26 08:44:57;;;;;;;27.05;14.55;;;;;;;;;;4970365;28;20030;-79
2021/10/26 08:47:23;;;;;;;26.95;14.73;;;;;;;;;;4973983;28;20439;-78
2021/10/26 08:49:51;;;;;;;25.30;14.57;;;;;;;;;;4971809;28;20214;-75
2021/10/26 08:52:19;;;;;;;28.20;16.27;;;;;;;;;;4964123;28;20038;-78
2021/10/26 08:54:46;;;;;;;22.80;14.13;;;;;;;;;;4969145;28;20479;-77
2021/10/26 08:57:11;;;;;;;28.70;15.05;;;;;;;;;;4967218;28;20022;-74
2021/10/26 08:59:37;;;;;;;24.30;14.30;;;;;;;;;;4970307;28;20399;-74
2021/10/26 09:02:04;;;;;;;25.30;14.82;;;;;;;;;;4971906;28;20505;-74
2021/10/26 09:04:31;;;;;;;24.27;13.85;;;;;;;;;;4969070;28;20102;-75
2021/10/26 09:07:04;;;;;;;30.02;15.15;;;;;;;;;;4967364;28;20033;-74
2021/10/26 09:09:30;;;;;;;25.58;14.18;;;;;;;;;;4968520;28;20027;-75
2021/10/26 09:17:48;;;;;;;25.63;14.38;;;;;;;;;;4970269;28;20442;-77
2021/10/26 09:20:15;;;;;;;28.88;15.73;;;;;;;;;;4972589;28;20455;-78
2021/10/26 09:22:54;;;;;;;26.23;14.88;;;;;;;;;;4971596;28;20415;-75
2021/10/26 09:25:20;;;;;;;32.50;16.27;;;;;;;;;;4964052;28;20491;-78
2021/10/26 09:27:48;;;;;;;31.13;15.07;;;;;;;;;;4960311;28;20029;-79
2021/10/26 09:30:16;;;;;;;32.97;15.45;;;;;;;;;;4963957;28;20026;-77
2021/10/26 09:32:45;;;;;;;26.73;14.80;;;;;;;;;;4968323;28;20530;-78
2021/10/26 09:35:13;;;;;;;31.25;16.02;;;;;;;;;;4967925;28;20046;-78
2021/10/26 09:37:42;;;;;;;31.90;15.43;;;;;;;;;;4963370;28;20618;-79
2021/10/26 09:40:09;;;;;;;28.52;16.23;;;;;;;;;;4966133;28;20027;-79
2021/10/26 09:42:53;;;;;;;28.83;16.02;;;;;;;;;;4967232;28;20034;-77
2021/10/26 09:45:28;;;;;;;28.70;14.32;;;;;;;;;;4968140;28;20426;-79
2021/10/26 09:47:57;;;;;;;27.65;14.63;;;;;;;;;;4956676;28;20086;-78
2021/10/26 09:50:30;;;;;;;26.30;14.15;;;;;;;;;;4968183;28;20055;-77
2021/10/26 09:53:07;;;;;;;24.88;14.13;;;;;;;;;;4968230;28;20035;-78
2021/10/26 09:55:42;;;;;;;25.63;15.13;;;;;;;;;;4967120;28;20033;-77
2021/10/26 09:58:13;;;;;;;27.67;14.73;;;;;;;;;;4969802;28;20510;-79
2021/10/26 10:00:42;;;;;;;24.75;14.40;;;;;;;;;;4969136;28;20101;-78
2021/10/26 10:03:24;;;;;;;25.75;14.32;;;;;;;;;;4962593;28;20035;-77
2021/10/26 10:05:56;;;;;;;27.05;14.73;;;;;;;;;;4967563;28;20030;-79
2021/10/26 10:08:24;;;;;;;27.48;14.95;;;;;;;;;;4969282;28;20085;-77
2021/10/26 10:10:51;;;;;;;26.00;14.50;;;;;;;;;;4963856;28;20041;-78
2021/10/26 10:13:17;;;;;;;24.30;13.50;;;;;;;;;;4972374;28;20784;-79
2021/10/26 10:15:45;;;;;;;23.88;14.00;;;;;;;;;;4967885;28;20034;-78
2021/10/26 10:18:15;;;;;;;26.27;14.27;;;;;;;;;;4967461;28;20486;-80
2021/10/26 10:20:41;;;;;;;25.15;13.88;;;;;;;;;;4953233;28;20035;-79
2021/10/26 10:23:07;;;;;;;25.85;13.23;;;;;;;;;;4929633;28;1112101;-76
2021/10/26 10:25:33;;;;;;;23.02;12.80;;;;;;;;;;4972229;28;20113;-78
2021/10/26 10:28:01;;;;;;;23.33;13.35;;;;;;;;;;4969503;28;20435;-77
2021/10/26 10:30:29;;;;;;;24.27;13.30;;;;;;;;;;4953433;28;20027;-78
2021/10/26 10:32:55;;;;;;;25.98;13.80;;;;;;;;;;4966328;28;20041;-77
2021/10/26 10:35:26;;;;;;;24.15;13.20;;;;;;;;;;4972764;28;20467;-78
2021/10/26 10:37:53;;;;;;;22.08;12.07;;;;;;;;;;4971872;28;20590;-78
2021/10/26 10:40:31;;;;;;;22.58;12.50;;;;;;;;;;4972743;28;20030;-76
2021/10/26 10:42:57;;;;;;;23.50;13.75;;;;;;;;;;4972905;28;20023;-78
2021/10/26 10:45:35;;;;;;;25.33;12.75;;;;;;;;;;4972397;28;20360;-79
2021/10/26 10:48:27;;;;;;;27.10;13.05;;;;;;;;;;4971543;28;20042;-79
2021/10/26 10:51:09;;;;;;;21.38;11.50;;;;;;;;;;4972918;28;20082;-78
2021/10/26 10:53:35;;;;;;;20.98;11.10;;;;;;;;;;4971756;28;20026;-79
2021/10/26 10:56:17;;;;;;;18.55;10.40;;;;;;;;;;4973440;28;20351;-79
2021/10/26 10:58:45;;;;;;;19.85;9.80;;;;;;;;;;4959907;28;20027;-79
2021/10/26 11:01:37;;;;;;;21.38;11.48;;;;;;;;;;4971251;28;20118;-78
2021/10/26 11:04:17;;;;;;;21.30;11.90;;;;;;;;;;4972020;28;20467;-79
2021/10/26 11:06:43;;;;;;;21.58;11.18;;;;;;;;;;4972588;28;20058;-78
2021/10/26 11:09:34;;;;;;;19.10;11.07;;;;;;;;;;4974022;28;20359;-77
2021/10/26 11:12:31;;;;;;;21.27;11.60;;;;;;;;;;4973724;28;20482;-77
2021/10/26 11:15:07;;;;;;;21.08;11.13;;;;;;;;;;4973780;28;20019;-80
2021/10/26 11:17:36;;;;;;;15.77;9.85;;;;;;;;;;4973208;28;20030;-79
2021/10/26 11:20:26;;;;;;;16.50;9.90;;;;;;;;;;4972874;28;20035;-80
2021/10/26 11:23:02;;;;;;;17.27;9.93;;;;;;;;;;4972405;28;20068;-78
2021/10/26 11:25:28;;;;;;;16.65;10.10;;;;;;;;;;4972602;28;20498;-79
2021/10/26 11:28:18;;;;;;;16.02;9.57;;;;;;;;;;4972410;28;20037;-79
2021/10/26 11:30:46;;;;;;;15.68;8.75;;;;;;;;;;4965169;28;20664;-78
2021/10/26 11:33:12;;;;;;;13.13;8.70;;;;;;;;;;4972853;28;20089;-79
2021/10/26 11:35:46;;;;;;;14.50;8.25;;;;;;;;;;4971831;28;20042;-79
2021/10/26 11:38:12;;;;;;;16.42;9.02;;;;;;;;;;4971484;28;20034;-79
2021/10/26 11:40:52;;;;;;;14.23;7.68;;;;;;;;;;4971862;28;20031;-77
2021/10/26 11:43:18;;;;;;;14.40;8.57;;;;;;;;;;4972393;28;20030;-78
2021/10/26 11:46:00;;;;;;;15.63;8.75;;;;;;;;;;4971909;28;20079;-79
2021/10/26 11:48:49;;;;;;;15.55;8.35;;;;;;;;;;4971356;28;20023;-79
2021/10/26 11:51:26;;;;;;;13.63;8.32;;;;;;;;;;4972140;28;20050;-78
2021/10/26 11:53:54;;;;;;;14.80;8.45;;;;;;;;;;4970776;28;20034;-80
2021/10/26 11:56:20;;;;;;;15.57;8.60;;;;;;;;;;4971243;28;20031;-77
2021/10/26 11:59:06;;;;;;;16.73;9.25;;;;;;;;;;4972744;28;20063;-78
2021/10/26 12:01:47;;;;;;;15.63;8.50;;;;;;;;;;4975240;28;20125;-77
2021/10/26 12:04:14;;;;;;;13.05;7.85;;;;;;;;;;4976036;28;20023;-81
2021/10/26 12:06:40;;;;;;;16.42;9.10;;;;;;;;;;4975857;28;20097;-77
2021/10/26 12:09:11;;;;;;;16.15;8.38;;;;;;;;;;4976071;28;20030;-79
2021/10/26 12:11:39;;;;;;;15.60;9.45;;;;;;;;;;4976153;28;20033;-79
2021/10/26 12:14:18;;;;;;;15.23;8.85;;;;;;;;;;4975956;28;20042;-80
2021/10/26 12:17:26;;;;;;;16.13;8.93;;;;;;;;;;4975578;28;20066;-82
2021/10/26 12:22:49;;;;;;;17.40;8.30;;;;;;;;;;4974414;28;20053;-78
2021/10/26 12:25:23;;;;;;;14.07;8.27;;;;;;;;;;4974624;28;20613;-78
2021/10/26 12:27:59;;;;;;;16.17;7.25;;;;;;;;;;4974418;28;20023;-76
2021/10/26 12:30:28;;;;;;;18.38;9.48;;;;;;;;;;4974935;28;20053;-77
2021/10/26 12:33:04;;;;;;;14.75;8.60;;;;;;;;;;4973990;28;20033;-78
2021/10/26 12:35:32;;;;;;;14.02;7.53;;;;;;;;;;4967729;28;20156;-79
2021/10/26 12:38:29;;;;;;;16.20;9.43;;;;;;;;;;4974521;28;20018;-79
2021/10/26 12:41:08;;;;;;;17.67;9.50;;;;;;;;;;4973677;28;20043;-79
2021/10/26 12:43:34;;;;;;;19.20;9.27;;;;;;;;;;4974095;28;20426;-79
2021/10/26 12:46:23;;;;;;;19.17;10.20;;;;;;;;;;4974716;28;20030;-80
2021/10/26 12:48:51;;;;;;;20.90;9.85;;;;;;;;;;4974690;28;20402;-76
2021/10/26 12:51:25;;;;;;;21.17;10.55;;;;;;;;;;4971773;28;20027;-77
2021/10/26 12:53:51;;;;;;;22.10;10.55;;;;;;;;;;4973677;28;20069;-77
2021/10/26 12:56:24;;;;;;;23.40;11.52;;;;;;;;;;4974024;28;20499;-78
2021/10/26 12:59:10;;;;;;;20.45;10.80;;;;;;;;;;4973079;28;20537;-77
2021/10/26 13:01:40;;;;;;;22.70;11.20;;;;;;;;;;4966587;28;20043;-78
2021/10/26 13:04:24;;;;;;;21.75;12.00;;;;;;;;;;4973836;28;20027;-78
2021/10/26 13:06:55;;;;;;;21.58;11.95;;;;;;;;;;4973221;28;20027;-76
2021/10/26 13:12:25;;;;;;;20.98;10.43;;;;;;;;;;4972714;28;20034;-76
2021/10/26 13:15:04;;;;;;;21.35;10.98;;;;;;;;;;4972902;28;20037;-75
2021/10/26 13:17:35;;;;;;;23.60;11.40;;;;;;;;;;4972220;28;20031;-78
2021/10/26 13:20:21;;;;;;;22.67;10.77;;;;;;;;;;4972987;28;20415;-77
2021/10/26 13:23:00;;;;;;;18.17;11.15;;;;;;;;;;4973245;28;20075;-78
2021/10/26 13:25:29;;;;;;;21.85;13.35;;;;;;;;;;4973137;28;20419;-77
2021/10/26 13:27:54;;;;;;;21.67;10.82;;;;;;;;;;4973354;28;20031;-73
2021/10/26 13:30:21;;;;;;;23.70;12.05;;;;;;;;;;4973882;28;20027;-77
2021/10/26 13:32:48;;;;;;;25.45;12.20;;;;;;;;;;4972864;28;20101;-77
2021/10/26 13:35:13;;;;;;;22.55;13.13;;;;;;;;;;4973334;28;20031;-78
2021/10/26 13:37:39;;;;;;;26.17;13.35;;;;;;;;;;4973530;28;20019;-78
2021/10/26 13:40:06;;;;;;;25.90;13.02;;;;;;;;;;4973307;28;20035;-78
2021/10/26 13:42:32;;;;;;;27.38;14.10;;;;;;;;;;4972621;28;20014;-77
2021/10/26 13:44:59;;;;;;;24.70;11.63;;;;;;;;;;4972834;28;20033;-76
2021/10/26 13:47:25;;;;;;;27.40;13.55;;;;;;;;;;4972593;28;20042;-76
2021/10/26 13:49:50;;;;;;;24.15;13.02;;;;;;;;;;4972506;28;20542;-77
2021/10/26 13:52:17;;;;;;;24.13;12.43;;;;;;;;;;4972968;28;20046;-76
2021/10/26 13:54:43;;;;;;;23.83;12.80;;;;;;;;;;4972927;28;20030;-74
2021/10/26 13:57:09;;;;;;;28.45;12.82;;;;;;;;;;4972551;28;20030;-74
2021/10/26 13:59:34;;;;;;;24.73;13.10;;;;;;;;;;4972689;28;20023;-73
2021/10/26 14:02:00;;;;;;;24.05;10.13;;;;;;;;;;4972304;28;20034;-76
2021/10/26 14:04:25;;;;;;;25.85;11.98;;;;;;;;;;4971271;28;20031;-74
2021/10/26 14:06:51;;;;;;;25.90;12.95;;;;;;;;;;4972236;28;20534;-74
2021/10/26 14:09:16;;;;;;;23.02;11.75;;;;;;;;;;4972166;28;20023;-75
2021/10/26 14:11:42;;;;;;;25.88;12.23;;;;;;;;;;4971831;28;20026;-74
2021/10/26 14:14:07;;;;;;;23.17;11.80;;;;;;;;;;4972619;28;20089;-74
2021/10/26 14:16:35;;;;;;;24.98;11.70;;;;;;;;;;4971782;28;20391;-73
2021/10/26 14:19:01;;;;;;;25.05;12.30;;;;;;;;;;4971246;28;20052;-73
2021/10/26 14:21:28;;;;;;;24.45;12.10;;;;;;;;;;4970277;28;20387;-73
2021/10/26 14:23:54;;;;;;;24.27;11.88;;;;;;;;;;4970091;28;20093;-73
2021/10/26 14:26:19;;;;;;;28.60;12.25;;;;;;;;;;4971266;28;20035;-73
2021/10/26 14:28:45;;;;;;;28.35;12.38;;;;;;;;;;4971282;28;20014;-73
2021/10/26 14:31:15;;;;;;;22.42;11.50;;;;;;;;;;4971057;28;20033;-73
2021/10/26 14:33:41;;;;;;;23.40;11.30;;;;;;;;;;4971215;28;20417;-72
2021/10/26 14:36:13;;;;;;;21.42;11.15;;;;;;;;;;4970889;28;20165;-73
2021/10/26 14:39:08;;;;;;;22.10;11.88;;;;;;;;;;4971244;28;20019;-72
2021/10/26 14:41:38;;;;;;;24.85;11.88;;;;;;;;;;4970692;28;20039;-73
2021/10/26 14:55:12;;;;;;;23.55;11.52;;;;;;;;;;4970678;28;20037;-73